createdAt,value
2023-02-25T00:01:29.739Z,98068.22
2023-02-25T00:05:32.143Z,98066.25
2023-02-25T00:09:34.124Z,98056.84
2023-02-25T00:13:36.099Z,98067.56
2023-02-25T00:17:39.965Z,98066.53
2023-02-25T00:21:41.909Z,98063.41
2023-02-25T00:25:43.905Z,98051.16
2023-02-25T00:29:45.705Z,98074.50
2023-02-25T00:33:48.500Z,98056.69
2023-02-25T00:37:59.163Z,98053.72
2023-02-25T00:42:05.876Z,98040.06
2023-02-25T00:46:08.995Z,98051.22
2023-02-25T00:50:11.836Z,98041.66
2023-02-25T00:54:13.673Z,98046.88
2023-02-25T00:58:15.499Z,98044.41
2023-02-25T01:02:17.315Z,98041.41
2023-02-25T01:06:19.404Z,98042.28
2023-02-25T01:10:21.454Z,98034.28
2023-02-25T01:14:25.032Z,98026.47
2023-02-25T01:18:27.535Z,98033.13
2023-02-25T01:22:29.301Z,98024.53
2023-02-25T01:26:33.797Z,98013.91
2023-02-25T01:30:38.714Z,98017.78
2023-02-25T01:34:40.622Z,98003.84
2023-02-25T01:38:42.394Z,98014.41
2023-02-25T01:42:45.949Z,98010.38
2023-02-25T01:46:53.288Z,98017.03
2023-02-25T01:51:10.174Z,98022.38
2023-02-25T01:55:15.267Z,98015.56
2023-02-25T01:59:17.766Z,98019.06
2023-02-25T02:03:19.523Z,98018.16
2023-02-25T02:07:22.203Z,98012.66
2023-02-25T02:11:24.209Z,98002.34
2023-02-25T02:15:25.960Z,98004.94
2023-02-25T02:19:52.451Z,97996.69
2023-02-25T02:24:09.794Z,97989.72
2023-02-25T02:28:30.225Z,98002.13
2023-02-25T02:32:48.654Z,97996.34
2023-02-25T02:37:11.517Z,97988.75
2023-02-25T02:41:41.393Z,97971.28
2023-02-25T02:45:58.867Z,97991.88
2023-02-25T02:50:26.143Z,97979.72
2023-02-25T02:54:31.482Z,97979.00
2023-02-25T02:58:37.337Z,97984.78
2023-02-25T03:02:45.680Z,97979.53
2023-02-25T03:07:05.682Z,97972.50
2023-02-25T03:11:13.678Z,97977.94
2023-02-25T03:15:22.656Z,97980.22
2023-02-25T03:19:46.703Z,97989.97
2023-02-25T03:23:48.504Z,97976.53
2023-02-25T03:27:55.892Z,97984.31
2023-02-25T03:32:10.383Z,97984.13
2023-02-25T03:36:14.184Z,97990.75
2023-02-25T03:40:16.375Z,98000.13
2023-02-25T03:44:25.922Z,98000.63
2023-02-25T03:48:27.737Z,98013.50
2023-02-25T03:52:51.401Z,98018.72
2023-02-25T03:57:00.943Z,98013.66
2023-02-25T04:01:05.728Z,98023.00
2023-02-25T04:05:10.084Z,98015.19
2023-02-25T04:09:12.029Z,98031.81
2023-02-25T04:13:15.934Z,98022.91
2023-02-25T04:17:19.361Z,98020.16
2023-02-25T04:21:33.549Z,98041.41
2023-02-25T04:25:37.484Z,98052.97
2023-02-25T04:29:39.227Z,98070.50
2023-02-25T04:33:41.359Z,98082.00
2023-02-25T04:37:43.410Z,98089.38
2023-02-25T04:41:45.332Z,98081.09
2023-02-25T04:45:47.174Z,98098.84
2023-02-25T04:49:49.216Z,98098.53
2023-02-25T04:53:51.058Z,98099.44
2023-02-25T04:57:57.226Z,98093.13
2023-02-25T05:01:59.106Z,98089.19
2023-02-25T05:06:01.183Z,98098.84
2023-02-25T05:10:03.110Z,98101.13
2023-02-25T05:14:04.892Z,98102.75
2023-02-25T05:18:07.070Z,98097.31
2023-02-25T05:22:09.164Z,98098.91
2023-02-25T05:26:11.885Z,98108.44
2023-02-25T05:30:14.680Z,98116.78
2023-02-25T05:34:16.801Z,98122.25
2023-02-25T05:38:18.657Z,98125.53
2023-02-25T05:42:20.617Z,98119.59
2023-02-25T05:46:22.847Z,98126.59
2023-02-25T05:50:24.889Z,98136.25
2023-02-25T05:54:26.647Z,98144.41
2023-02-25T05:58:28.400Z,98155.69
2023-02-25T06:02:30.306Z,98151.47
2023-02-25T06:06:32.420Z,98163.56
2023-02-25T06:10:38.422Z,98169.41
2023-02-25T06:14:40.182Z,98177.03
2023-02-25T06:18:42.027Z,98169.94
2023-02-25T06:22:44.019Z,98179.94
2023-02-25T06:26:45.798Z,98196.25
2023-02-25T06:30:48.494Z,98193.97
2023-02-25T06:34:50.294Z,98195.44
2023-02-25T06:38:52.125Z,98226.69
2023-02-25T06:42:54.032Z,98217.84
2023-02-25T06:46:55.946Z,98220.97
2023-02-25T06:50:57.786Z,98219.66
2023-02-25T06:54:59.827Z,98234.56
2023-02-25T06:59:01.625Z,98241.56
2023-02-25T07:03:03.826Z,98238.16
2023-02-25T07:07:06.155Z,98237.22
2023-02-25T07:11:15.483Z,98252.19
2023-02-25T07:15:17.449Z,98257.56
2023-02-25T07:19:19.343Z,98259.22
2023-02-25T07:23:21.612Z,98250.22
2023-02-25T07:27:23.459Z,98258.00
2023-02-25T07:31:26.401Z,98250.34
2023-02-25T07:35:30.724Z,98273.00
2023-02-25T07:39:32.582Z,98269.59
2023-02-25T07:43:34.488Z,98278.84
2023-02-25T07:47:37.420Z,98279.84
2023-02-25T07:51:39.380Z,98272.81
2023-02-25T07:55:44.843Z,98282.41
2023-02-25T07:59:46.853Z,98279.53
2023-02-25T08:03:49.212Z,98293.22
2023-02-25T08:07:51.985Z,98299.56
2023-02-25T08:11:53.924Z,98295.88
2023-02-25T08:15:55.838Z,98302.13
2023-02-25T08:19:57.763Z,98301.25
2023-02-25T08:23:59.806Z,98293.56
2023-02-25T08:28:01.902Z,98304.22
2023-02-25T08:32:15.209Z,98290.09
2023-02-25T08:36:23.363Z,98315.81
2023-02-25T08:40:25.207Z,98314.22
2023-02-25T08:44:27.046Z,98316.19
2023-02-25T08:48:30.622Z,98317.22
2023-02-25T08:52:35.069Z,98316.34
2023-02-25T08:56:37.228Z,98322.03
2023-02-25T09:00:40.446Z,98321.50
2023-02-25T09:04:42.522Z,98338.34
2023-02-25T09:08:44.391Z,98337.03
2023-02-25T09:12:46.544Z,98342.31
2023-02-25T09:16:48.834Z,98343.53
2023-02-25T09:20:51.369Z,98352.34
2023-02-25T09:24:53.776Z,98364.63
2023-02-25T09:28:55.831Z,98364.38
2023-02-25T09:33:02.062Z,98364.38
2023-02-25T09:37:07.526Z,98365.09
2023-02-25T09:41:34.585Z,98385.41
2023-02-25T09:45:36.764Z,98379.69
2023-02-25T09:49:42.031Z,98389.63
2023-02-25T09:53:49.713Z,98416.94
2023-02-25T09:58:24.011Z,98401.31
2023-02-25T10:02:52.316Z,98415.16
2023-02-25T10:06:56.184Z,98426.00
2023-02-25T10:11:17.633Z,98426.03
2023-02-25T10:15:37.676Z,98442.44
2023-02-25T10:19:59.191Z,98451.31
2023-02-25T10:24:28.426Z,98462.72
2023-02-25T10:28:30.491Z,98455.19
2023-02-25T10:32:42.551Z,98458.72
2023-02-25T10:36:57.986Z,98474.28
2023-02-25T10:41:00.102Z,98476.59
2023-02-25T10:45:22.030Z,98473.91
2023-02-25T10:49:26.467Z,98475.56
2023-02-25T10:53:28.495Z,98480.63
2023-02-25T10:57:44.857Z,98489.09
2023-02-25T11:01:52.719Z,98497.00
2023-02-25T11:06:17.812Z,98506.25
2023-02-25T11:10:24.327Z,98496.84
2023-02-25T11:14:31.234Z,98505.31
2023-02-25T11:18:33.495Z,98501.47
2023-02-25T11:22:44.616Z,98500.19
2023-02-25T11:26:48.540Z,98506.75
2023-02-25T11:30:50.682Z,98499.28
2023-02-25T11:34:59.874Z,98514.22
2023-02-25T11:39:21.077Z,98503.22
2023-02-25T11:43:44.978Z,98513.84
2023-02-25T11:47:49.439Z,98512.88
2023-02-25T11:52:15.831Z,98518.59
2023-02-25T11:56:27.212Z,98508.47
2023-02-25T12:00:53.823Z,98507.00
2023-02-25T12:05:35.229Z,98520.44
2023-02-25T12:10:16.038Z,98538.41
2023-02-25T12:15:15.164Z,98525.47
2023-02-25T12:19:42.934Z,98528.69
2023-02-25T12:24:08.868Z,98532.22
2023-02-25T12:28:52.471Z,98544.19
2023-02-25T12:33:39.499Z,98547.31
2023-02-25T12:38:09.868Z,98567.34
2023-02-25T12:42:26.810Z,98562.09
2023-02-25T12:46:47.613Z,98551.19
2023-02-25T12:50:59.759Z,98570.69
2023-02-25T12:55:43.166Z,98571.97
2023-02-25T13:00:06.114Z,98570.69
2023-02-25T13:04:28.791Z,98581.06
2023-02-25T13:08:52.484Z,98577.56
2023-02-25T13:13:43.567Z,98586.59
2023-02-25T13:17:57.005Z,98586.38
2023-02-25T13:22:38.297Z,98584.78
2023-02-25T13:27:01.888Z,98599.41
2023-02-25T13:31:48.374Z,98606.94
2023-02-25T13:36:59.242Z,98607.28
2023-02-25T13:41:33.590Z,98603.84
2023-02-25T13:45:53.037Z,98612.13
2023-02-25T13:50:20.957Z,98613.88
2023-02-25T13:54:47.004Z,98633.41
2023-02-25T13:59:33.999Z,98634.50
2023-02-25T14:04:26.351Z,98625.34
2023-02-25T14:09:02.116Z,98641.47
2023-02-25T14:13:46.044Z,98630.66
2023-02-25T14:18:11.092Z,98639.97
2023-02-25T14:22:59.416Z,98652.28
2023-02-25T14:27:29.777Z,98652.56
2023-02-25T14:32:10.540Z,98695.69
2023-02-25T14:36:28.061Z,98703.97
2023-02-25T14:40:45.948Z,98713.91
2023-02-25T14:44:53.771Z,98720.38
2023-02-25T14:49:13.912Z,98721.84
2023-02-25T14:53:40.482Z,98724.03
2023-02-25T14:58:03.470Z,98730.28
2023-02-25T15:02:33.285Z,98722.09
2023-02-25T15:07:26.830Z,98734.69
2023-02-25T15:11:56.246Z,98740.72
2023-02-25T15:16:43.698Z,98740.16
2023-02-25T15:20:48.709Z,98743.19
2023-02-25T15:24:55.113Z,98754.81
2023-02-25T15:28:58.301Z,98761.53
2023-02-25T15:33:00.108Z,98766.09
2023-02-25T15:37:23.913Z,98766.91
2023-02-25T15:41:42.991Z,98772.19
2023-02-25T15:46:06.445Z,98777.84
2023-02-25T15:50:09.451Z,98784.13
2023-02-25T15:54:30.516Z,98807.31
2023-02-25T15:58:32.395Z,98822.97
2023-02-25T16:02:39.496Z,98821.50
2023-02-25T16:06:41.508Z,98844.31
2023-02-25T16:10:46.308Z,98852.75
2023-02-25T16:14:48.242Z,98850.72
2023-02-25T16:18:51.245Z,98868.56
2023-02-25T16:22:59.730Z,98876.72
2023-02-25T16:27:06.361Z,98881.41
2023-02-25T16:31:19.321Z,98883.97
2023-02-25T16:35:51.780Z,98892.78
2023-02-25T16:39:55.377Z,98895.25
2023-02-25T16:43:59.650Z,98899.72
2023-02-25T16:48:22.999Z,98914.44
2023-02-25T16:52:42.778Z,98913.53
2023-02-25T16:56:46.602Z,98913.28
2023-02-25T17:01:00.262Z,98927.91
2023-02-25T17:05:02.177Z,98943.38
2023-02-25T17:09:04.089Z,98958.31
2023-02-25T17:13:06.102Z,98954.25
2023-02-25T17:17:17.040Z,98966.88
2023-02-25T17:21:34.376Z,98967.19
2023-02-25T17:25:44.905Z,98985.47
2023-02-25T17:29:47.126Z,98982.09
2023-02-25T17:33:54.134Z,99006.25
2023-02-25T17:37:56.707Z,98996.59
2023-02-25T17:42:01.308Z,99012.81
2023-02-25T17:46:27.806Z,99020.00
2023-02-25T17:50:31.999Z,99021.41
2023-02-25T17:54:35.946Z,99034.06
2023-02-25T17:58:38.052Z,99019.78
2023-02-25T18:02:42.161Z,99029.19
2023-02-25T18:06:44.962Z,99038.59
2023-02-25T18:10:52.108Z,99043.00
2023-02-25T18:15:02.411Z,99043.97
2023-02-25T18:19:22.253Z,99044.22
2023-02-25T18:23:25.569Z,99054.78
2023-02-25T18:27:33.889Z,99058.28
2023-02-25T18:31:36.877Z,99051.97
2023-02-25T18:35:40.725Z,99054.28
2023-02-25T18:39:43.488Z,99064.81
2023-02-25T18:43:45.515Z,99053.63
2023-02-25T18:48:00.436Z,99077.75
2023-02-25T18:52:14.044Z,99060.88
2023-02-25T18:56:17.160Z,99080.22
2023-02-25T19:00:24.007Z,99079.41
2023-02-25T19:04:31.506Z,99090.72
2023-02-25T19:08:36.751Z,99103.19
2023-02-25T19:12:41.642Z,99101.53
2023-02-25T19:16:44.012Z,99096.81
2023-02-25T19:20:53.868Z,99110.44
2023-02-25T19:24:57.208Z,99119.53
2023-02-25T19:29:04.359Z,99132.13
2023-02-25T19:33:23.211Z,99130.91
2023-02-25T19:37:33.904Z,99145.66
2023-02-25T19:41:37.203Z,99156.41
2023-02-25T19:45:41.487Z,99153.09
2023-02-25T19:49:54.802Z,99154.84
2023-02-25T19:53:57.357Z,99162.25
2023-02-25T19:58:01.253Z,99160.03
2023-02-25T20:02:10.959Z,99178.38
2023-02-25T20:06:19.637Z,99175.50
2023-02-25T20:10:22.444Z,99186.00
2023-02-25T20:14:28.097Z,99197.31
2023-02-25T20:18:31.890Z,99205.13
2023-02-25T20:22:36.955Z,99218.41
2023-02-25T20:26:39.529Z,99225.50
2023-02-25T20:30:41.812Z,99222.31
2023-02-25T20:34:44.266Z,99230.88
2023-02-25T20:39:07.353Z,99222.97
2023-02-25T20:43:10.543Z,99235.59
2023-02-25T20:47:37.744Z,99238.72
2023-02-25T20:51:40.085Z,99242.50
2023-02-25T20:55:41.986Z,99242.81
2023-02-25T20:59:44.031Z,99250.03
2023-02-25T21:03:56.751Z,99261.97
2023-02-25T21:08:01.756Z,99257.72
2023-02-25T21:12:03.829Z,99266.59
2023-02-25T21:16:07.021Z,99271.81
2023-02-25T21:20:10.803Z,99270.59
2023-02-25T21:24:15.120Z,99285.75
2023-02-25T21:28:17.658Z,99295.69
2023-02-25T21:32:19.575Z,99290.78
2023-02-25T21:36:28.736Z,99289.66
2023-02-25T21:40:34.549Z,99297.78
2023-02-25T21:44:36.502Z,99299.63
2023-02-25T21:48:39.643Z,99316.81
2023-02-25T21:52:44.308Z,99307.66
2023-02-25T21:56:46.212Z,99303.81
2023-02-25T22:00:48.137Z,99323.69
2023-02-25T22:04:49.948Z,99319.38
2023-02-25T22:08:52.186Z,99320.06
2023-02-25T22:12:54.267Z,99312.88
2023-02-25T22:16:56.170Z,99317.50
2023-02-25T22:21:28.635Z,99335.16
2023-02-25T22:25:30.423Z,99316.66
2023-02-25T22:29:32.631Z,99324.50
2023-02-25T22:33:34.407Z,99325.94
2023-02-25T22:37:36.303Z,99337.94
2023-02-25T22:41:38.768Z,99335.59
2023-02-25T22:45:41.305Z,99334.69
2023-02-25T22:49:43.350Z,99344.78
2023-02-25T22:53:45.252Z,99342.19
2023-02-25T22:57:47.552Z,99349.56
2023-02-25T23:01:49.480Z,99359.84
2023-02-25T23:05:54.317Z,99364.19
2023-02-25T23:09:56.474Z,99372.63
2023-02-25T23:13:59.950Z,99378.03
2023-02-25T23:18:04.888Z,99390.72
2023-02-25T23:22:07.097Z,99375.47
2023-02-25T23:26:12.542Z,99386.44
2023-02-25T23:30:14.674Z,99396.50
2023-02-25T23:34:23.548Z,99391.97
2023-02-25T23:38:25.507Z,99396.22
2023-02-25T23:42:27.405Z,99401.91
2023-02-25T23:46:30.435Z,99405.81
2023-02-25T23:50:32.692Z,99401.03
2023-02-25T23:54:34.648Z,99409.56
2023-02-25T23:58:36.637Z,99413.50
